createdAt,value
2022-11-29T00:00:53.232Z,997.44
2022-11-29T00:05:53.173Z,997.38
2022-11-29T00:10:53.109Z,997.41
2022-11-29T00:15:53.037Z,997.43
2022-11-29T00:20:52.964Z,997.46
2022-11-29T00:25:52.909Z,997.39
2022-11-29T00:30:52.840Z,997.44
2022-11-29T00:35:52.773Z,997.46
2022-11-29T00:40:52.704Z,997.38
2022-11-29T00:45:52.659Z,997.46
2022-11-29T00:50:52.567Z,997.44
2022-11-29T00:55:52.505Z,997.37
2022-11-29T01:00:52.444Z,997.40
2022-11-29T01:05:52.374Z,997.45
2022-11-29T01:10:52.299Z,997.45
2022-11-29T01:15:52.441Z,997.45
2022-11-29T01:20:52.167Z,997.52
2022-11-29T01:25:52.107Z,997.55
2022-11-29T01:30:52.054Z,997.58
2022-11-29T01:35:51.973Z,997.58
2022-11-29T01:40:51.900Z,997.63
2022-11-29T01:45:51.885Z,997.61
2022-11-29T01:50:51.765Z,997.59
2022-11-29T01:55:51.731Z,997.53
2022-11-29T02:00:51.632Z,997.50
2022-11-29T02:05:51.573Z,997.57
2022-11-29T02:10:51.501Z,997.51
2022-11-29T02:15:51.536Z,997.54
2022-11-29T02:20:51.366Z,997.60
2022-11-29T02:25:51.308Z,997.58
2022-11-29T02:30:51.284Z,997.60
2022-11-29T02:35:51.172Z,997.67
2022-11-29T02:40:51.100Z,997.63
2022-11-29T02:45:51.092Z,997.67
2022-11-29T02:50:50.968Z,997.65
2022-11-29T02:55:50.911Z,997.71
2022-11-29T03:00:50.835Z,997.71
2022-11-29T03:05:50.778Z,997.73
2022-11-29T03:10:50.706Z,997.79
2022-11-29T03:15:50.732Z,997.74
2022-11-29T03:20:50.573Z,997.80
2022-11-29T03:25:50.514Z,997.86
2022-11-29T03:30:50.490Z,997.86
2022-11-29T03:35:50.388Z,997.89
2022-11-29T03:40:50.313Z,997.91
2022-11-29T03:45:50.253Z,997.91
2022-11-29T03:50:50.182Z,997.90
2022-11-29T03:55:50.123Z,997.87
2022-11-29T04:00:50.048Z,997.88
2022-11-29T04:05:49.990Z,997.88
2022-11-29T04:10:49.917Z,997.90
2022-11-29T04:15:49.908Z,997.96
2022-11-29T04:20:49.787Z,997.98
2022-11-29T04:25:49.728Z,998.01
2022-11-29T04:30:49.701Z,998.07
2022-11-29T04:35:49.591Z,998.08
2022-11-29T04:40:49.518Z,998.11
2022-11-29T04:45:49.460Z,998.08
2022-11-29T04:50:49.387Z,998.17
2022-11-29T04:55:49.328Z,998.17
2022-11-29T05:00:49.267Z,998.25
2022-11-29T05:05:49.197Z,998.22
2022-11-29T05:10:49.135Z,998.21
2022-11-29T05:15:49.073Z,998.27
2022-11-29T05:20:49.003Z,998.29
2022-11-29T05:25:48.939Z,998.34
2022-11-29T05:30:48.970Z,998.37
2022-11-29T05:35:48.816Z,998.38
2022-11-29T05:40:48.734Z,998.42
2022-11-29T05:45:48.686Z,998.45
2022-11-29T05:50:48.601Z,998.49
2022-11-29T05:55:48.557Z,998.56
2022-11-29T06:00:48.471Z,998.61
2022-11-29T06:05:48.422Z,998.64
2022-11-29T06:10:48.338Z,998.71
2022-11-29T06:15:48.290Z,998.75
2022-11-29T06:20:48.207Z,998.77
2022-11-29T06:25:48.150Z,998.88
2022-11-29T06:30:48.077Z,998.87
2022-11-29T06:35:48.020Z,998.89
2022-11-29T06:40:47.945Z,998.91
2022-11-29T06:45:47.887Z,999.00
2022-11-29T06:50:47.814Z,999.03
2022-11-29T06:55:47.767Z,999.09
2022-11-29T07:00:47.752Z,999.16
2022-11-29T07:05:47.635Z,999.22
2022-11-29T07:10:47.553Z,999.26
2022-11-29T07:15:47.655Z,999.34
2022-11-29T07:20:47.420Z,999.32
2022-11-29T07:25:47.381Z,999.31
2022-11-29T07:30:47.292Z,999.37
2022-11-29T07:35:47.233Z,999.37
2022-11-29T07:40:47.172Z,999.51
2022-11-29T07:45:47.103Z,999.47
2022-11-29T07:50:47.031Z,999.49
2022-11-29T07:55:46.975Z,999.49
2022-11-29T08:00:46.947Z,999.53
2022-11-29T08:05:46.842Z,999.54
2022-11-29T08:10:46.768Z,999.53
2022-11-29T08:15:46.715Z,999.52
2022-11-29T08:20:46.636Z,999.58
2022-11-29T08:25:46.579Z,999.65
2022-11-29T08:30:46.515Z,999.61
2022-11-29T08:35:46.449Z,999.66
2022-11-29T08:40:46.373Z,999.69
2022-11-29T08:45:46.362Z,999.75
2022-11-29T08:50:46.241Z,999.74
2022-11-29T08:55:46.199Z,999.76
2022-11-29T09:00:46.190Z,999.87
2022-11-29T09:05:46.064Z,999.87
2022-11-29T09:10:45.996Z,999.87
2022-11-29T09:15:45.932Z,999.96
2022-11-29T09:20:45.848Z,999.98
2022-11-29T09:25:45.801Z,1000.06
2022-11-29T09:30:45.717Z,1000.10
2022-11-29T09:35:45.661Z,1000.06
2022-11-29T09:40:45.586Z,1000.17
2022-11-29T09:45:45.576Z,1000.16
2022-11-29T09:50:45.456Z,1000.17
2022-11-29T09:55:45.405Z,1000.14
2022-11-29T10:00:45.326Z,1000.16
2022-11-29T10:05:45.267Z,1000.15
2022-11-29T10:10:45.193Z,1000.21
2022-11-29T10:15:45.149Z,1000.19
2022-11-29T10:20:48.928Z,1000.19
2022-11-29T10:25:45.014Z,1000.19
2022-11-29T10:30:45.021Z,1000.23
2022-11-29T10:35:44.885Z,1000.19
2022-11-29T10:40:44.801Z,1000.22
2022-11-29T10:45:44.794Z,1000.21
2022-11-29T10:50:44.669Z,1000.18
2022-11-29T10:55:44.616Z,1000.26
2022-11-29T11:00:44.548Z,1000.24
2022-11-29T11:05:44.513Z,1000.28
2022-11-29T11:10:48.193Z,1000.32
2022-11-29T11:15:44.354Z,1000.27
2022-11-29T11:20:44.287Z,1000.33
2022-11-29T11:25:44.219Z,1000.33
2022-11-29T11:30:44.215Z,1000.35
2022-11-29T11:35:44.093Z,1000.37
2022-11-29T11:40:44.045Z,1000.44
2022-11-29T11:45:44.067Z,1000.49
2022-11-29T11:50:43.885Z,1000.49
2022-11-29T11:55:43.826Z,1000.56
2022-11-29T12:05:46.330Z,1000.48
2022-11-29T12:10:43.623Z,1000.56
2022-11-29T12:15:43.679Z,1000.62
2022-11-29T12:20:43.518Z,1000.65
2022-11-29T12:25:43.574Z,1000.66
2022-11-29T12:30:43.561Z,1000.67
2022-11-29T12:35:43.305Z,1000.69
2022-11-29T12:40:43.243Z,1000.70
2022-11-29T12:45:43.175Z,1000.68
2022-11-29T12:50:43.115Z,1000.76
2022-11-29T12:55:43.045Z,1000.78
2022-11-29T13:00:42.973Z,1000.78
2022-11-29T13:05:42.915Z,1000.89
2022-11-29T13:10:42.844Z,1000.89
2022-11-29T13:15:42.896Z,1000.91
2022-11-29T13:20:42.712Z,1000.91
2022-11-29T13:25:42.655Z,1000.94
2022-11-29T13:30:42.583Z,1000.98
2022-11-29T13:35:42.519Z,1000.99
2022-11-29T13:40:42.460Z,1000.97
2022-11-29T13:45:42.389Z,1001.04
2022-11-29T13:50:42.334Z,1001.07
2022-11-29T13:55:42.254Z,1001.08
2022-11-29T14:00:42.197Z,1001.09
2022-11-29T14:05:42.123Z,1001.11
2022-11-29T14:10:42.067Z,1001.17
2022-11-29T14:15:42.042Z,1001.19
2022-11-29T14:20:41.947Z,1001.23
2022-11-29T14:25:57.249Z,1001.23
2022-11-29T14:30:42.843Z,1001.23
2022-11-29T14:35:41.737Z,1001.25
2022-11-29T14:40:41.689Z,1001.28
2022-11-29T14:45:41.604Z,1001.34
2022-11-29T14:50:41.557Z,1001.39
2022-11-29T14:55:41.474Z,1001.33
2022-11-29T15:00:41.419Z,1001.37
2022-11-29T15:05:41.343Z,1001.44
2022-11-29T15:10:41.285Z,1001.50
2022-11-29T15:15:41.214Z,1001.51
2022-11-29T15:20:41.154Z,1001.48
2022-11-29T15:25:41.082Z,1001.57
2022-11-29T15:30:41.023Z,1001.61
2022-11-29T15:35:40.952Z,1001.69
2022-11-29T15:40:40.906Z,1001.72
2022-11-29T15:45:40.916Z,1001.79
2022-11-29T15:50:40.771Z,1001.85
2022-11-29T15:55:40.763Z,1001.92
2022-11-29T16:00:40.680Z,1001.97
2022-11-29T16:05:40.557Z,1001.98
2022-11-29T16:10:40.508Z,1002.05
2022-11-29T16:15:40.435Z,1002.09
2022-11-29T16:20:40.384Z,1002.14
2022-11-29T16:25:40.305Z,1002.17
2022-11-29T16:30:40.236Z,1002.24
2022-11-29T16:35:40.173Z,1002.27
2022-11-29T16:40:40.104Z,1002.32
2022-11-29T16:45:40.129Z,1002.31
2022-11-29T16:50:39.974Z,1002.31
2022-11-29T16:55:39.903Z,1002.38
2022-11-29T17:00:39.846Z,1002.40
2022-11-29T17:05:44.562Z,1002.38
2022-11-29T17:10:39.711Z,1002.35
2022-11-29T17:15:39.638Z,1002.35
2022-11-29T17:20:39.581Z,1002.37
2022-11-29T17:25:39.508Z,1002.40
2022-11-29T17:30:39.475Z,1002.40
2022-11-29T17:35:39.387Z,1002.35
2022-11-29T17:40:39.319Z,1002.44
2022-11-29T17:45:39.284Z,1002.48
2022-11-29T17:50:39.196Z,1002.57
2022-11-29T17:55:39.373Z,1002.60
2022-11-29T18:00:39.059Z,1002.66
2022-11-29T18:05:38.995Z,1002.65
2022-11-29T18:10:38.925Z,1002.72
2022-11-29T18:15:38.853Z,1002.74
2022-11-29T18:20:38.793Z,1002.69
2022-11-29T18:25:40.039Z,1002.67
2022-11-29T18:30:38.696Z,1002.70
2022-11-29T18:35:38.599Z,1002.74
2022-11-29T18:40:38.531Z,1002.74
2022-11-29T18:45:38.536Z,1002.79
2022-11-29T18:50:38.400Z,1002.78
2022-11-29T18:55:38.510Z,1002.85
2022-11-29T19:00:38.268Z,1002.90
2022-11-29T19:05:38.199Z,1002.91
2022-11-29T19:10:38.136Z,1002.88
2022-11-29T19:15:38.101Z,1002.94
2022-11-29T19:20:38.008Z,1002.97
2022-11-29T19:25:37.933Z,1002.95
2022-11-29T19:30:37.929Z,1002.94
2022-11-29T19:35:37.816Z,1003.01
2022-11-29T19:40:37.744Z,1003.00
2022-11-29T19:45:37.686Z,1003.03
2022-11-29T19:50:37.615Z,1003.04
2022-11-29T19:55:42.377Z,1003.08
2022-11-29T20:00:37.486Z,1003.09
2022-11-29T20:05:37.420Z,1003.09
2022-11-29T20:10:37.351Z,1003.23
2022-11-29T20:15:37.320Z,1003.20
2022-11-29T20:20:37.221Z,1003.25
2022-11-29T20:25:37.148Z,1003.34
2022-11-29T20:30:37.092Z,1003.31
2022-11-29T20:35:37.018Z,1003.33
2022-11-29T20:40:36.959Z,1003.41
2022-11-29T20:45:36.886Z,1003.42
2022-11-29T20:50:36.828Z,1003.41
2022-11-29T20:55:36.765Z,1003.39
2022-11-29T21:00:36.703Z,1003.43
2022-11-29T21:05:36.642Z,1003.51
2022-11-29T21:10:36.568Z,1003.51
2022-11-29T21:15:36.509Z,1003.55
2022-11-29T21:20:36.439Z,1003.61
2022-11-29T21:25:36.378Z,1003.58
2022-11-29T21:30:36.306Z,1003.60
2022-11-29T21:35:36.237Z,1003.64
2022-11-29T21:40:36.190Z,1003.68
2022-11-29T21:45:36.102Z,1003.66
2022-11-29T21:50:36.058Z,1003.62
2022-11-29T21:55:35.975Z,1003.65
2022-11-29T22:00:37.627Z,1003.67
2022-11-29T22:05:35.843Z,1003.69
2022-11-29T22:10:35.801Z,1003.69
2022-11-29T22:15:35.710Z,1003.71
2022-11-29T22:20:35.653Z,1003.70
2022-11-29T22:25:35.581Z,1003.70
2022-11-29T22:30:35.522Z,1003.71
2022-11-29T22:35:35.449Z,1003.68
2022-11-29T22:40:35.395Z,1003.72
2022-11-29T22:45:35.320Z,1003.78
2022-11-29T22:50:35.260Z,1003.78
2022-11-29T22:55:35.189Z,1003.77
2022-11-29T23:00:35.183Z,1003.76
2022-11-29T23:05:35.060Z,1003.73
2022-11-29T23:10:35.010Z,1003.71
2022-11-29T23:15:34.928Z,1003.75
2022-11-29T23:20:34.878Z,1003.80
2022-11-29T23:25:34.795Z,1003.74
2022-11-29T23:30:34.755Z,1003.70
2022-11-29T23:35:34.675Z,1003.70
2022-11-29T23:40:34.610Z,1003.71
2022-11-29T23:45:34.582Z,1003.65
2022-11-29T23:50:34.475Z,1003.67
2022-11-29T23:55:34.405Z,1003.67
